sensor_id;sensor_type;location;lat;lon;timestamp;pressure;altitude;pressure_sealevel;temperature;humidity
29907;BME280;16776;50.958;10.994;2022-10-16T00:02:16;98183.75;;;14.39;100.00
29907;BME280;16776;50.958;10.994;2022-10-16T00:04:43;98170.94;;;14.36;100.00
29907;BME280;16776;50.958;10.994;2022-10-16T00:07:11;98165.69;;;14.38;100.00
29907;BME280;16776;50.958;10.994;2022-10-16T00:09:37;98159.81;;;14.34;100.00
29907;BME280;16776;50.958;10.994;2022-10-16T00:12:04;98155.53;;;14.33;100.00
29907;BME280;16776;50.958;10.994;2022-10-16T00:14:32;98159.97;;;14.31;100.00
29907;BME280;16776;50.958;10.994;2022-10-16T00:16:58;98162.56;;;14.31;100.00
29907;BME280;16776;50.958;10.994;2022-10-16T00:19:25;98165.22;;;14.30;100.00
29907;BME280;16776;50.958;10.994;2022-10-16T00:21:51;98175.66;;;14.28;100.00
29907;BME280;16776;50.958;10.994;2022-10-16T00:24:19;98172.16;;;14.29;100.00
29907;BME280;16776;50.958;10.994;2022-10-16T00:26:49;98172.16;;;14.29;100.00
29907;BME280;16776;50.958;10.994;2022-10-16T00:29:15;98185.47;;;14.21;100.00
29907;BME280;16776;50.958;10.994;2022-10-16T00:31:42;98188.16;;;14.20;100.00
29907;BME280;16776;50.958;10.994;2022-10-16T00:34:08;98182.13;;;14.19;100.00
29907;BME280;16776;50.958;10.994;2022-10-16T00:36:35;98181.41;;;14.16;100.00
29907;BME280;16776;50.958;10.994;2022-10-16T00:39:02;98189.25;;;14.14;100.00
29907;BME280;16776;50.958;10.994;2022-10-16T00:41:30;98191.00;;;14.14;100.00
29907;BME280;16776;50.958;10.994;2022-10-16T00:43:59;98200.75;;;14.09;100.00
29907;BME280;16776;50.958;10.994;2022-10-16T00:46:27;98193.88;;;14.08;100.00
29907;BME280;16776;50.958;10.994;2022-10-16T00:48:57;98195.75;;;14.06;100.00
29907;BME280;16776;50.958;10.994;2022-10-16T00:51:30;98203.56;;;14.04;100.00
29907;BME280;16776;50.958;10.994;2022-10-16T00:53:57;98209.03;;;13.98;100.00
29907;BME280;16776;50.958;10.994;2022-10-16T00:56:25;98201.41;;;13.95;100.00
29907;BME280;16776;50.958;10.994;2022-10-16T00:58:53;98206.50;;;13.97;100.00
29907;BME280;16776;50.958;10.994;2022-10-16T01:01:19;98200.72;;;13.92;100.00
29907;BME280;16776;50.958;10.994;2022-10-16T01:03:46;98198.25;;;13.89;100.00
29907;BME280;16776;50.958;10.994;2022-10-16T01:06:24;98201.34;;;13.97;100.00
29907;BME280;16776;50.958;10.994;2022-10-16T01:09:06;98183.44;;;13.92;100.00
29907;BME280;16776;50.958;10.994;2022-10-16T01:11:40;98183.66;;;13.88;100.00
29907;BME280;16776;50.958;10.994;2022-10-16T01:14:13;98188.84;;;13.88;100.00
29907;BME280;16776;50.958;10.994;2022-10-16T01:16:44;98177.72;;;13.86;100.00
29907;BME280;16776;50.958;10.994;2022-10-16T01:19:20;98176.81;;;13.87;100.00
29907;BME280;16776;50.958;10.994;2022-10-16T01:21:53;98183.19;;;13.79;100.00
29907;BME280;16776;50.958;10.994;2022-10-16T01:24:31;98183.72;;;13.86;100.00
29907;BME280;16776;50.958;10.994;2022-10-16T01:27:07;98186.38;;;13.85;100.00
29907;BME280;16776;50.958;10.994;2022-10-16T01:29:37;98189.19;;;13.80;100.00
29907;BME280;16776;50.958;10.994;2022-10-16T01:32:11;98189.19;;;13.80;100.00
29907;BME280;16776;50.958;10.994;2022-10-16T01:34:45;98193.59;;;13.78;100.00
29907;BME280;16776;50.958;10.994;2022-10-16T01:37:16;98190.22;;;13.76;100.00
29907;BME280;16776;50.958;10.994;2022-10-16T01:39:47;98196.34;;;13.75;100.00
29907;BME280;16776;50.958;10.994;2022-10-16T01:42:20;98196.34;;;13.75;100.00
29907;BME280;16776;50.958;10.994;2022-10-16T01:44:48;98205.19;;;13.69;100.00
29907;BME280;16776;50.958;10.994;2022-10-16T01:47:17;98210.47;;;13.68;100.00
29907;BME280;16776;50.958;10.994;2022-10-16T01:49:45;98215.66;;;13.68;100.00
29907;BME280;16776;50.958;10.994;2022-10-16T01:52:15;98215.56;;;13.69;100.00
29907;BME280;16776;50.958;10.994;2022-10-16T01:54:46;98207.44;;;13.58;100.00
29907;BME280;16776;50.958;10.994;2022-10-16T01:57:14;98217.59;;;13.63;100.00
29907;BME280;16776;50.958;10.994;2022-10-16T01:59:46;98220.03;;;13.66;100.00
29907;BME280;16776;50.958;10.994;2022-10-16T02:02:17;98227.88;;;13.64;100.00
29907;BME280;16776;50.958;10.994;2022-10-16T02:04:47;98230.59;;;13.61;100.00
29907;BME280;16776;50.958;10.994;2022-10-16T02:07:15;98222.13;;;13.58;100.00
29907;BME280;16776;50.958;10.994;2022-10-16T02:09:42;98214.47;;;13.56;100.00
29907;BME280;16776;50.958;10.994;2022-10-16T02:12:12;98225.56;;;13.58;100.00
29907;BME280;16776;50.958;10.994;2022-10-16T02:14:40;98227.50;;;13.53;100.00
29907;BME280;16776;50.958;10.994;2022-10-16T02:17:13;98223.88;;;13.57;100.00
29907;BME280;16776;50.958;10.994;2022-10-16T02:19:41;98213.03;;;13.49;100.00
29907;BME280;16776;50.958;10.994;2022-10-16T02:22:10;98218.09;;;13.51;100.00
29907;BME280;16776;50.958;10.994;2022-10-16T02:24:47;98220.63;;;13.52;100.00
29907;BME280;16776;50.958;10.994;2022-10-16T02:27:20;98228.53;;;13.49;100.00
29907;BME280;16776;50.958;10.994;2022-10-16T02:29:52;98227.56;;;13.52;100.00
29907;BME280;16776;50.958;10.994;2022-10-16T02:32:27;98225.25;;;13.46;100.00
29907;BME280;16776;50.958;10.994;2022-10-16T02:34:56;98230.91;;;13.35;100.00
29907;BME280;16776;50.958;10.994;2022-10-16T02:37:24;98232.59;;;13.36;100.00
29907;BME280;16776;50.958;10.994;2022-10-16T02:39:52;98235.16;;;13.36;100.00
29907;BME280;16776;50.958;10.994;2022-10-16T02:42:19;98240.41;;;13.34;100.00
29907;BME280;16776;50.958;10.994;2022-10-16T02:44:45;98244.78;;;13.32;100.00
29907;BME280;16776;50.958;10.994;2022-10-16T02:47:12;98238.88;;;13.30;100.00
29907;BME280;16776;50.958;10.994;2022-10-16T02:49:40;98246.53;;;13.32;100.00
29907;BME280;16776;50.958;10.994;2022-10-16T02:52:06;98245.91;;;13.27;100.00
29907;BME280;16776;50.958;10.994;2022-10-16T02:54:33;98245.00;;;13.28;100.00
29907;BME280;16776;50.958;10.994;2022-10-16T02:56:59;98240.72;;;13.27;100.00
29907;BME280;16776;50.958;10.994;2022-10-16T02:59:25;98238.22;;;13.25;100.00
29907;BME280;16776;50.958;10.994;2022-10-16T03:01:52;98236.47;;;13.26;100.00
29907;BME280;16776;50.958;10.994;2022-10-16T03:04:18;98243.31;;;13.27;100.00
29907;BME280;16776;50.958;10.994;2022-10-16T03:06:46;98245.78;;;13.30;100.00
29907;BME280;16776;50.958;10.994;2022-10-16T03:09:13;98242.47;;;13.26;100.00
29907;BME280;16776;50.958;10.994;2022-10-16T03:11:39;98236.47;;;13.26;100.00
29907;BME280;16776;50.958;10.994;2022-10-16T03:14:06;98230.53;;;13.24;100.00
29907;BME280;16776;50.958;10.994;2022-10-16T03:16:32;98228.84;;;13.23;100.00
29907;BME280;16776;50.958;10.994;2022-10-16T03:18:59;98220.31;;;13.21;100.00
29907;BME280;16776;50.958;10.994;2022-10-16T03:21:25;98224.66;;;13.20;100.00
29907;BME280;16776;50.958;10.994;2022-10-16T03:23:53;98232.34;;;13.22;100.00
29907;BME280;16776;50.958;10.994;2022-10-16T03:26:20;98217.78;;;13.19;100.00
29907;BME280;16776;50.958;10.994;2022-10-16T03:28:46;98229.88;;;13.19;100.00
29907;BME280;16776;50.958;10.994;2022-10-16T03:31:13;98226.53;;;13.17;100.00
29907;BME280;16776;50.958;10.994;2022-10-16T03:33:39;98232.63;;;13.16;100.00
29907;BME280;16776;50.958;10.994;2022-10-16T03:36:05;98230.94;;;13.15;100.00
29907;BME280;16776;50.958;10.994;2022-10-16T03:38:32;98241.28;;;13.15;100.00
29907;BME280;16776;50.958;10.994;2022-10-16T03:41:00;98243.78;;;13.16;100.00
29907;BME280;16776;50.958;10.994;2022-10-16T03:43:27;98238.75;;;13.13;100.00
29907;BME280;16776;50.958;10.994;2022-10-16T03:45:53;98246.44;;;13.15;100.00
29907;BME280;16776;50.958;10.994;2022-10-16T03:48:20;98250.78;;;13.14;100.00
29907;BME280;16776;50.958;10.994;2022-10-16T03:50:46;98244.75;;;13.14;100.00
29907;BME280;16776;50.958;10.994;2022-10-16T03:53:13;98233.47;;;13.16;100.00
29907;BME280;16776;50.958;10.994;2022-10-16T03:55:41;98237.63;;;13.19;100.00
29907;BME280;16776;50.958;10.994;2022-10-16T03:58:08;98244.44;;;13.21;100.00
29907;BME280;16776;50.958;10.994;2022-10-16T04:00:35;98240.94;;;13.22;100.00
29907;BME280;16776;50.958;10.994;2022-10-16T04:03:01;98239.19;;;13.23;100.00
29907;BME280;16776;50.958;10.994;2022-10-16T04:05:28;98243.38;;;13.25;100.00
29907;BME280;16776;50.958;10.994;2022-10-16T04:07:54;98247.72;;;13.25;100.00
29907;BME280;16776;50.958;10.994;2022-10-16T04:10:21;98247.66;;;13.26;100.00
29907;BME280;16776;50.958;10.994;2022-10-16T04:12:47;98251.91;;;13.27;100.00
29907;BME280;16776;50.958;10.994;2022-10-16T04:15:15;98262.97;;;13.31;100.00
29907;BME280;16776;50.958;10.994;2022-10-16T04:17:42;98267.31;;;13.30;100.00
29907;BME280;16776;50.958;10.994;2022-10-16T04:20:08;98255.19;;;13.31;100.00
29907;BME280;16776;50.958;10.994;2022-10-16T04:22:35;98258.63;;;13.31;100.00
29907;BME280;16776;50.958;10.994;2022-10-16T04:25:01;98266.38;;;13.31;100.00
29907;BME280;16776;50.958;10.994;2022-10-16T04:27:28;98263.88;;;13.30;100.00
29907;BME280;16776;50.958;10.994;2022-10-16T04:29:56;98280.31;;;13.29;100.00
29907;BME280;16776;50.958;10.994;2022-10-16T04:32:24;98278.47;;;13.31;100.00
29907;BME280;16776;50.958;10.994;2022-10-16T04:34:51;98276.03;;;13.28;100.00
29907;BME280;16776;50.958;10.994;2022-10-16T04:37:18;98278.63;;;13.28;100.00
29907;BME280;16776;50.958;10.994;2022-10-16T04:39:44;98288.06;;;13.29;100.00
29907;BME280;16776;50.958;10.994;2022-10-16T04:42:11;98289.81;;;13.28;100.00
29907;BME280;16776;50.958;10.994;2022-10-16T04:44:37;98295.81;;;13.29;100.00
29907;BME280;16776;50.958;10.994;2022-10-16T04:47:04;98307.84;;;13.30;100.00
29907;BME280;16776;50.958;10.994;2022-10-16T04:49:32;98313.72;;;13.33;100.00
29907;BME280;16776;50.958;10.994;2022-10-16T04:51:58;98311.19;;;13.32;100.00
29907;BME280;16776;50.958;10.994;2022-10-16T04:54:25;98310.28;;;13.33;100.00
29907;BME280;16776;50.958;10.994;2022-10-16T04:56:51;98314.56;;;13.34;100.00
29907;BME280;16776;50.958;10.994;2022-10-16T04:59:18;98329.19;;;13.35;100.00
29907;BME280;16776;50.958;10.994;2022-10-16T05:01:45;98318.84;;;13.35;100.00
29907;BME280;16776;50.958;10.994;2022-10-16T05:04:12;98324.84;;;13.35;100.00
29907;BME280;16776;50.958;10.994;2022-10-16T05:06:41;98338.47;;;13.39;100.00
29907;BME280;16776;50.958;10.994;2022-10-16T05:09:08;98334.31;;;13.36;100.00
29907;BME280;16776;50.958;10.994;2022-10-16T05:11:35;98342.06;;;13.36;100.00
29907;BME280;16776;50.958;10.994;2022-10-16T05:14:02;98341.13;;;13.37;100.00
29907;BME280;16776;50.958;10.994;2022-10-16T05:16:28;98344.56;;;13.38;100.00
29907;BME280;16776;50.958;10.994;2022-10-16T05:18:56;98350.44;;;13.41;100.00
29907;BME280;16776;50.958;10.994;2022-10-16T05:21:22;98348.72;;;13.42;100.00
29907;BME280;16776;50.958;10.994;2022-10-16T05:23:50;98351.94;;;13.47;100.00
29907;BME280;16776;50.958;10.994;2022-10-16T05:26:17;98345.03;;;13.48;100.00
29907;BME280;16776;50.958;10.994;2022-10-16T05:28:43;98344.97;;;13.49;100.00
29907;BME280;16776;50.958;10.994;2022-10-16T05:31:10;98339.69;;;13.51;100.00
29907;BME280;16776;50.958;10.994;2022-10-16T05:33:37;98349.09;;;13.53;100.00
29907;BME280;16776;50.958;10.994;2022-10-16T05:36:06;98352.50;;;13.54;100.00
29907;BME280;16776;50.958;10.994;2022-10-16T05:38:33;98356.84;;;13.53;100.00
29907;BME280;16776;50.958;10.994;2022-10-16T05:41:02;98359.25;;;13.58;100.00
29907;BME280;16776;50.958;10.994;2022-10-16T05:43:29;98368.00;;;13.55;100.00
29907;BME280;16776;50.958;10.994;2022-10-16T05:45:56;98363.72;;;13.54;100.00
29907;BME280;16776;50.958;10.994;2022-10-16T05:48:23;98369.09;;;13.50;100.00
29907;BME280;16776;50.958;10.994;2022-10-16T05:50:56;98380.03;;;13.56;100.00
29907;BME280;16776;50.958;10.994;2022-10-16T05:53:23;98381.78;;;13.56;100.00
29907;BME280;16776;50.958;10.994;2022-10-16T05:55:52;98394.38;;;13.43;100.00
29907;BME280;16776;50.958;10.994;2022-10-16T05:58:20;98378.84;;;13.43;100.00
29907;BME280;16776;50.958;10.994;2022-10-16T06:00:53;98353.69;;;13.47;100.00
29907;BME280;16776;50.958;10.994;2022-10-16T06:03:19;98341.97;;;13.38;100.00
29907;BME280;16776;50.958;10.994;2022-10-16T06:05:46;98332.63;;;13.35;100.00
29907;BME280;16776;50.958;10.994;2022-10-16T06:08:12;98341.34;;;13.33;100.00
29907;BME280;16776;50.958;10.994;2022-10-16T06:10:38;98343.13;;;13.31;100.00
29907;BME280;16776;50.958;10.994;2022-10-16T06:13:05;98341.53;;;13.28;100.00
29907;BME280;16776;50.958;10.994;2022-10-16T06:15:33;98331.19;;;13.28;100.00
29907;BME280;16776;50.958;10.994;2022-10-16T06:17:59;98341.66;;;13.25;100.00
29907;BME280;16776;50.958;10.994;2022-10-16T06:20:26;98341.72;;;13.24;100.00
29907;BME280;16776;50.958;10.994;2022-10-16T06:22:52;98345.13;;;13.24;100.00
29907;BME280;16776;50.958;10.994;2022-10-16T06:25:19;98352.00;;;13.25;100.00
29907;BME280;16776;50.958;10.994;2022-10-16T06:27:45;98341.72;;;13.24;100.00
29907;BME280;16776;50.958;10.994;2022-10-16T06:30:12;98342.50;;;13.26;100.00
29907;BME280;16776;50.958;10.994;2022-10-16T06:32:39;98345.88;;;13.28;100.00
29907;BME280;16776;50.958;10.994;2022-10-16T06:35:07;98348.44;;;13.28;100.00
29907;BME280;16776;50.958;10.994;2022-10-16T06:37:33;98352.72;;;13.29;100.00
29907;BME280;16776;50.958;10.994;2022-10-16T06:40:00;98363.06;;;13.29;100.00
29907;BME280;16776;50.958;10.994;2022-10-16T06:42:29;98354.41;;;13.30;100.00
29907;BME280;16776;50.958;10.994;2022-10-16T06:44:56;98361.22;;;13.31;100.00
29907;BME280;16776;50.958;10.994;2022-10-16T06:47:22;98371.47;;;13.34;100.00
29907;BME280;16776;50.958;10.994;2022-10-16T06:49:50;98374.69;;;13.39;100.00
29907;BME280;16776;50.958;10.994;2022-10-16T06:52:17;98376.38;;;13.40;100.00
29907;BME280;16776;50.958;10.994;2022-10-16T06:54:43;98379.59;;;13.45;100.00
29907;BME280;16776;50.958;10.994;2022-10-16T06:57:10;98380.13;;;13.53;100.00
29907;BME280;16776;50.958;10.994;2022-10-16T06:59:36;98390.81;;;13.66;100.00
29907;BME280;16776;50.958;10.994;2022-10-16T07:02:02;98396.38;;;13.77;100.00
29907;BME280;16776;50.958;10.994;2022-10-16T07:04:29;98406.19;;;13.89;100.00
29907;BME280;16776;50.958;10.994;2022-10-16T07:06:57;98413.50;;;14.00;100.00
29907;BME280;16776;50.958;10.994;2022-10-16T07:09:24;98408.06;;;14.06;100.00
29907;BME280;16776;50.958;10.994;2022-10-16T07:11:50;98405.94;;;14.14;100.00
29907;BME280;16776;50.958;10.994;2022-10-16T07:14:18;98402.19;;;14.21;100.00
29907;BME280;16776;50.958;10.994;2022-10-16T07:16:45;98396.81;;;14.26;100.00
29907;BME280;16776;50.958;10.994;2022-10-16T07:19:12;98399.13;;;14.32;100.00
29907;BME280;16776;50.958;10.994;2022-10-16T07:21:41;98406.63;;;14.38;100.00
29907;BME280;16776;50.958;10.994;2022-10-16T07:24:13;98398.38;;;14.48;100.00
29907;BME280;16776;50.958;10.994;2022-10-16T07:26:41;98403.56;;;14.48;100.00
29907;BME280;16776;50.958;10.994;2022-10-16T07:29:12;98408.22;;;14.59;100.00
29907;BME280;16776;50.958;10.994;2022-10-16T07:31:40;98403.03;;;14.59;100.00
29907;BME280;16776;50.958;10.994;2022-10-16T07:34:06;98381.75;;;14.52;100.00
29907;BME280;16776;50.958;10.994;2022-10-16T07:36:33;98400.09;;;14.67;100.00
29907;BME280;16776;50.958;10.994;2022-10-16T07:38:59;98400.81;;;14.70;100.00
29907;BME280;16776;50.958;10.994;2022-10-16T07:41:27;98397.09;;;14.76;100.00
29907;BME280;16776;50.958;10.994;2022-10-16T07:43:54;98410.81;;;14.78;100.00
29907;BME280;16776;50.958;10.994;2022-10-16T07:46:22;98399.53;;;14.79;100.00
29907;BME280;16776;50.958;10.994;2022-10-16T07:48:49;98417.53;;;14.82;100.00
29907;BME280;16776;50.958;10.994;2022-10-16T07:51:17;98420.63;;;14.90;100.00
29907;BME280;16776;50.958;10.994;2022-10-16T07:53:44;98416.03;;;14.95;100.00
29907;BME280;16776;50.958;10.994;2022-10-16T07:56:11;98427.81;;;15.02;100.00
29907;BME280;16776;50.958;10.994;2022-10-16T07:58:39;98427.34;;;15.11;100.00
29907;BME280;16776;50.958;10.994;2022-10-16T08:01:08;98430.59;;;15.16;100.00
29907;BME280;16776;50.958;10.994;2022-10-16T08:03:34;98439.94;;;15.19;100.00
29907;BME280;16776;50.958;10.994;2022-10-16T08:06:01;98443.25;;;15.22;100.00
29907;BME280;16776;50.958;10.994;2022-10-16T08:08:29;98451.72;;;15.26;100.00
29907;BME280;16776;50.958;10.994;2022-10-16T08:10:55;98462.78;;;15.29;100.00
29907;BME280;16776;50.958;10.994;2022-10-16T08:13:22;98463.53;;;15.31;100.00
29907;BME280;16776;50.958;10.994;2022-10-16T08:15:50;98471.91;;;15.38;100.00
29907;BME280;16776;50.958;10.994;2022-10-16T08:18:17;98477.88;;;15.40;100.00
29907;BME280;16776;50.958;10.994;2022-10-16T08:20:43;98490.63;;;15.45;100.00
29907;BME280;16776;50.958;10.994;2022-10-16T08:23:11;98502.38;;;15.52;100.00
29907;BME280;16776;50.958;10.994;2022-10-16T08:25:38;98502.16;;;15.56;100.00
29907;BME280;16776;50.958;10.994;2022-10-16T08:28:06;98503.69;;;15.60;100.00
29907;BME280;16776;50.958;10.994;2022-10-16T08:30:34;98509.56;;;15.64;100.00
29907;BME280;16776;50.958;10.994;2022-10-16T08:33:02;98507.56;;;15.69;100.00
29907;BME280;16776;50.958;10.994;2022-10-16T08:35:29;98499.66;;;15.72;100.00
29907;BME280;16776;50.958;10.994;2022-10-16T08:37:55;98498.50;;;15.77;100.00
29907;BME280;16776;50.958;10.994;2022-10-16T08:40:24;98504.84;;;15.89;100.00
29907;BME280;16776;50.958;10.994;2022-10-16T08:43:20;98506.72;;;16.03;100.00
29907;BME280;16776;50.958;10.994;2022-10-16T08:46:03;98513.88;;;16.16;100.00
29907;BME280;16776;50.958;10.994;2022-10-16T08:48:41;98515.06;;;16.27;100.00
29907;BME280;16776;50.958;10.994;2022-10-16T08:51:12;98512.91;;;16.35;100.00
29907;BME280;16776;50.958;10.994;2022-10-16T08:53:44;98523.44;;;16.49;100.00
29907;BME280;16776;50.958;10.994;2022-10-16T08:56:13;98515.91;;;16.60;100.00
29907;BME280;16776;50.958;10.994;2022-10-16T08:58:39;98525.72;;;16.71;100.00
29907;BME280;16776;50.958;10.994;2022-10-16T09:01:14;98513.50;;;16.88;100.00
29907;BME280;16776;50.958;10.994;2022-10-16T09:04:03;98520.75;;;16.99;100.00
29907;BME280;16776;50.958;10.994;2022-10-16T09:06:45;98534.44;;;17.03;100.00
29907;BME280;16776;50.958;10.994;2022-10-16T09:09:21;98539.47;;;17.06;100.00
29907;BME280;16776;50.958;10.994;2022-10-16T09:11:55;98538.47;;;17.08;100.00
29907;BME280;16776;50.958;10.994;2022-10-16T09:14:43;98545.00;;;17.15;100.00
29907;BME280;16776;50.958;10.994;2022-10-16T09:17:22;98547.72;;;17.14;100.00
29907;BME280;16776;50.958;10.994;2022-10-16T09:19:54;98543.56;;;17.10;100.00
29907;BME280;16776;50.958;10.994;2022-10-16T09:22:27;98534.19;;;17.07;100.00
29907;BME280;16776;50.958;10.994;2022-10-16T09:24:55;98543.69;;;17.08;100.00
29907;BME280;16776;50.958;10.994;2022-10-16T09:27:25;98534.44;;;17.03;100.00
29907;BME280;16776;50.958;10.994;2022-10-16T09:29:53;98545.25;;;17.11;100.00
29907;BME280;16776;50.958;10.994;2022-10-16T09:32:20;98543.25;;;17.16;100.00
29907;BME280;16776;50.958;10.994;2022-10-16T09:34:49;98550.72;;;17.22;100.00
29907;BME280;16776;50.958;10.994;2022-10-16T09:37:19;98529.81;;;17.23;100.00
29907;BME280;16776;50.958;10.994;2022-10-16T09:39:48;98539.88;;;17.29;100.00
29907;BME280;16776;50.958;10.994;2022-10-16T09:42:17;98536.44;;;17.29;100.00
29907;BME280;16776;50.958;10.994;2022-10-16T09:44:47;98551.22;;;17.44;100.00
29907;BME280;16776;50.958;10.994;2022-10-16T09:47:17;98556.22;;;17.47;100.00
29907;BME280;16776;50.958;10.994;2022-10-16T09:49:53;98565.16;;;17.59;100.00
29907;BME280;16776;50.958;10.994;2022-10-16T09:52:23;98555.66;;;17.58;100.00
29907;BME280;16776;50.958;10.994;2022-10-16T09:54:52;98568.59;;;17.59;100.00
29907;BME280;16776;50.958;10.994;2022-10-16T09:57:19;98572.84;;;17.60;100.00
29907;BME280;16776;50.958;10.994;2022-10-16T09:59:47;98578.06;;;17.60;100.00
29907;BME280;16776;50.958;10.994;2022-10-16T10:02:16;98574.44;;;17.63;100.00
29907;BME280;16776;50.958;10.994;2022-10-16T10:04:48;98584.53;;;17.69;100.00
29907;BME280;16776;50.958;10.994;2022-10-16T10:07:18;98584.59;;;17.67;100.00
29907;BME280;16776;50.958;10.994;2022-10-16T10:09:48;98587.22;;;17.67;100.00
29907;BME280;16776;50.958;10.994;2022-10-16T10:12:19;98574.09;;;17.69;100.00
29907;BME280;16776;50.958;10.994;2022-10-16T10:14:47;98579.41;;;17.67;100.00
29907;BME280;16776;50.958;10.994;2022-10-16T10:17:17;98585.38;;;17.69;100.00
29907;BME280;16776;50.958;10.994;2022-10-16T10:19:48;98580.00;;;17.72;100.00
29907;BME280;16776;50.958;10.994;2022-10-16T10:22:30;98581.59;;;17.75;100.00
29907;BME280;16776;50.958;10.994;2022-10-16T10:25:00;98577.47;;;17.71;100.00
29907;BME280;16776;50.958;10.994;2022-10-16T10:27:38;98572.34;;;17.69;100.00
29907;BME280;16776;50.958;10.994;2022-10-16T10:30:15;98570.34;;;17.74;100.00
29907;BME280;16776;50.958;10.994;2022-10-16T10:32:54;98586.06;;;17.73;100.00
29907;BME280;16776;50.958;10.994;2022-10-16T10:35:30;98585.22;;;17.72;100.00
29907;BME280;16776;50.958;10.994;2022-10-16T10:38:09;98587.56;;;17.77;100.00
29907;BME280;16776;50.958;10.994;2022-10-16T10:40:49;98596.31;;;17.76;100.00
29907;BME280;16776;50.958;10.994;2022-10-16T10:43:30;98598.84;;;17.77;100.00
29907;BME280;16776;50.958;10.994;2022-10-16T10:46:05;98600.34;;;17.66;100.00
29907;BME280;16776;50.958;10.994;2022-10-16T10:48:54;98609.25;;;17.77;100.00
29907;BME280;16776;50.958;10.994;2022-10-16T10:51:28;98608.81;;;17.69;100.00
29907;BME280;16776;50.958;10.994;2022-10-16T10:54:06;98616.63;;;17.69;100.00
29907;BME280;16776;50.958;10.994;2022-10-16T10:56:45;98614.94;;;17.68;100.00
29907;BME280;16776;50.958;10.994;2022-10-16T10:59:34;98613.94;;;17.71;100.00
29907;BME280;16776;50.958;10.994;2022-10-16T11:02:10;98621.50;;;17.60;100.00
29907;BME280;16776;50.958;10.994;2022-10-16T11:07:36;98624.13;;;17.44;100.00
29907;BME280;16776;50.958;10.994;2022-10-16T11:10:13;98625.88;;;17.44;100.00
29907;BME280;16776;50.958;10.994;2022-10-16T11:12:45;98623.09;;;17.31;100.00
29907;BME280;16776;50.958;10.994;2022-10-16T11:15:16;98629.22;;;17.30;100.00
29907;BME280;16776;50.958;10.994;2022-10-16T11:17:49;98631.69;;;17.33;100.00
29907;BME280;16776;50.958;10.994;2022-10-16T11:20:21;98634.44;;;17.30;100.00
29907;BME280;16776;50.958;10.994;2022-10-16T11:22:53;98636.13;;;17.31;100.00
29907;BME280;16776;50.958;10.994;2022-10-16T11:25:23;98634.59;;;17.27;100.00
29907;BME280;16776;50.958;10.994;2022-10-16T11:27:56;98636.19;;;17.29;100.00
29907;BME280;16776;50.958;10.994;2022-10-16T11:30:26;98635.84;;;17.20;100.00
29907;BME280;16776;50.958;10.994;2022-10-16T11:33:03;98645.69;;;17.30;100.00
29907;BME280;16776;50.958;10.994;2022-10-16T11:35:38;98629.81;;;17.19;100.00
29907;BME280;16776;50.958;10.994;2022-10-16T11:38:17;98640.88;;;17.23;100.00
29907;BME280;16776;50.958;10.994;2022-10-16T11:40:47;98648.03;;;17.19;100.00
29907;BME280;16776;50.958;10.994;2022-10-16T11:43:22;98639.19;;;17.22;100.00
29907;BME280;16776;50.958;10.994;2022-10-16T11:45:53;98641.06;;;17.20;100.00
29907;BME280;16776;50.958;10.994;2022-10-16T11:48:26;98645.94;;;17.26;100.00
29907;BME280;16776;50.958;10.994;2022-10-16T11:50:58;98642.50;;;17.25;100.00
29907;BME280;16776;50.958;10.994;2022-10-16T11:53:39;98629.56;;;17.24;100.00
29907;BME280;16776;50.958;10.994;2022-10-16T11:56:12;98643.34;;;17.26;100.00
29907;BME280;16776;50.958;10.994;2022-10-16T11:58:54;98642.16;;;17.31;100.00
29907;BME280;16776;50.958;10.994;2022-10-16T12:01:26;98642.81;;;17.19;100.00
29907;BME280;16776;50.958;10.994;2022-10-16T12:04:04;98644.41;;;17.22;100.00
29907;BME280;16776;50.958;10.994;2022-10-16T12:06:36;98645.56;;;17.16;100.00
29907;BME280;16776;50.958;10.994;2022-10-16T12:09:04;98639.25;;;17.05;100.00
29907;BME280;16776;50.958;10.994;2022-10-16T12:11:35;98643.28;;;17.10;100.00
29907;BME280;16776;50.958;10.994;2022-10-16T12:14:19;98646.50;;;17.15;100.00
29907;BME280;16776;50.958;10.994;2022-10-16T12:16:54;98654.56;;;17.11;100.00
29907;BME280;16776;50.958;10.994;2022-10-16T12:19:22;98649.53;;;17.08;100.00
29907;BME280;16776;50.958;10.994;2022-10-16T12:21:51;98648.19;;;17.16;100.00
29907;BME280;16776;50.958;10.994;2022-10-16T12:24:22;98629.03;;;17.17;100.00
29907;BME280;16776;50.958;10.994;2022-10-16T12:26:53;98648.13;;;17.49;100.00
29907;BME280;16776;50.958;10.994;2022-10-16T12:29:29;98651.09;;;17.74;100.00
29907;BME280;16776;50.958;10.994;2022-10-16T12:31:58;98652.09;;;17.88;100.00
29907;BME280;16776;50.958;10.994;2022-10-16T12:34:28;98650.13;;;18.07;100.00
29907;BME280;16776;50.958;10.994;2022-10-16T12:36:56;98645.13;;;18.18;100.00
29907;BME280;16776;50.958;10.994;2022-10-16T12:39:34;98641.81;;;18.30;100.00
29907;BME280;16776;50.958;10.994;2022-10-16T12:42:04;98637.09;;;18.37;100.00
29907;BME280;16776;50.958;10.994;2022-10-16T12:44:35;98645.06;;;18.49;100.00
29907;BME280;16776;50.958;10.994;2022-10-16T12:47:02;98660.72;;;18.49;100.00
29907;BME280;16776;50.958;10.994;2022-10-16T12:49:35;98645.53;;;18.56;100.00
29907;BME280;16776;50.958;10.994;2022-10-16T12:52:03;98649.56;;;18.62;100.00
29907;BME280;16776;50.958;10.994;2022-10-16T12:54:31;98653.22;;;18.73;100.00
29907;BME280;16776;50.958;10.994;2022-10-16T12:57:12;98646.97;;;18.90;100.00